SBGO/GYN METAR and TAF weather

Enter ICAO airport designator
Station Type Date Time Source
SBGO METAR 2019/05/19 20:00 UTC NOAA

SBGO 192000Z 15007KT 9999 FEW040 26/11 Q1017


Station Type Date Time Source
SBGO Decoded METAR 2019/05/19 20:00 UTC NOAA

Goiania Aeroporto , Brazil (SBGO) 16-38S 049-13W
May 19, 2019 - 04:00 PM EDT / 2019.05.19 2000 UTC
Wind: from the SSE (150 degrees) at 8 MPH (7 KT):0
Visibility: greater than 7 mile(s):0
Sky conditions: mostly clear
Temperature: 78 F (26 C)
Dew Point: 51 F (11 C)
Relative Humidity: 39%
Pressure (altimeter): 30.03 in. Hg (1017 hPa)
ob: SBGO 192000Z 15007KT 9999 FEW040 26/11 Q1017
cycle: 20

Station Type Date Time Source
SBGO TAF 2019/05/19 18:39 UTC NOAA

TAF TAF SBGO 191400Z 1918/2018 13005KT 7000 FEW040 TX27/1919Z TN17/2005Z
BECMG 2000/2002 CAVOK
BECMG 2006/2008 7000 FEW012
BECMG 2012/2014 09005KT SCT030
RMK PDE

Example: see airport list